page 1000 of 1011502 registered users

eBook PostsUsers

  1. 0bhhfuqoqjiuf registered @ 2009-10-26 19:11:15, last login @ 2009-10-26 19:11:15
  2. 0ferdozakl registered @ 2009-10-26 19:13:53, last login @ 2009-10-26 19:13:53
  3. 0Woytowiez registered @ 2009-10-26 19:14:11, last login @ 2009-10-26 19:14:11
  4. 0Goploie registered @ 2009-10-26 19:15:59, last login @ 2009-10-27 23:15:31
  5. 0aleleich registered @ 2009-10-26 19:20:14, last login @ 2009-10-26 19:20:14
  6. 0aaronwang registered @ 2009-10-26 19:28:11, last login @ 2009-10-26 19:28:11
  7. 0saratien registered @ 2009-10-26 19:56:42, last login @ 2009-10-26 19:56:42
  8. 0pshdagjkgjjjj registered @ 2009-10-26 20:10:29, last login @ 2009-10-26 20:10:29
  9. 0powerlsy registered @ 2009-10-26 20:25:03, last login @ 2009-10-26 21:22:40
  10. 0beheshteh registered @ 2009-10-26 20:34:48, last login @ 2009-10-26 20:34:48
  11. 0tedy registered @ 2009-10-26 20:35:55, last login @ 2009-10-26 20:41:22
  12. 0russsbrides registered @ 2009-10-26 20:54:43, last login @ 2009-10-26 20:54:43
  13. 0jjjjreeygavc registered @ 2009-10-26 21:08:19, last login @ 2009-10-26 21:08:19
  14. 0ImgDeplo registered @ 2009-10-26 21:10:26, last login @ 2009-10-26 21:10:26
  15. 0nacchi registered @ 2009-10-26 21:19:44, last login @ 2009-10-26 21:22:22
  16. 0BestTeethWhitenerStrips registered @ 2009-10-26 21:24:45, last login @ 2009-10-26 21:24:45
  17. 0BestToothWhitenerKits registered @ 2009-10-26 21:26:21, last login @ 2009-10-26 21:26:21
  18. 0endmuh registered @ 2009-10-26 21:30:15, last login @ 2009-10-26 21:30:15
  19. 0Cirlaredled registered @ 2009-10-26 21:30:25, last login @ 2009-10-28 06:48:24
  20. 0springchilly registered @ 2009-10-26 21:34:38, last login @ 2009-10-26 21:34:38
  21. 0das007123 registered @ 2009-10-26 21:52:10, last login @ 2009-10-26 21:52:10
  22. 0Fesskeplechep registered @ 2009-10-26 21:59:09, last login @ 2009-10-26 21:59:09
  23. 0gggghbfihfbihhsss registered @ 2009-10-26 22:03:46, last login @ 2009-10-26 22:03:46
  24. 0BestTeethWhiteningProduct registered @ 2009-10-26 22:05:40, last login @ 2009-10-26 22:05:40
  25. 0nejla registered @ 2009-10-26 22:18:50, last login @ 2009-10-26 22:18:50
  26. 0startont registered @ 2009-10-26 22:41:07, last login @ 2009-10-27 22:51:39
  27. 0nnnudiiqhfduyeq registered @ 2009-10-26 22:54:22, last login @ 2009-10-26 22:54:22
  28. 0colin4239 registered @ 2009-10-26 22:57:01, last login @ 2009-10-26 22:57:01
  29. 0rolland registered @ 2009-10-26 23:09:24, last login @ 2009-10-26 23:09:24
  30. 0dolender registered @ 2009-10-26 23:11:41, last login @ 2009-10-26 23:11:41
  31. 0Vanlawrence registered @ 2009-10-26 23:39:22, last login @ 2009-10-26 23:39:22
  32. 0trurrouby registered @ 2009-10-26 23:39:58, last login @ 2009-10-26 23:39:59
  33. 0dddjjefhefqw registered @ 2009-10-26 23:53:13, last login @ 2009-10-26 23:53:13
  34. 0boanupeguance registered @ 2009-10-26 23:57:17, last login @ 2009-10-26 23:57:17
  35. 3mqadry registered @ 2009-10-26 23:57:58, last login @ 2009-10-27 10:10:06
  36. 0anouarbrahem registered @ 2009-10-27 00:00:50, last login @ 2009-10-27 00:00:50
  37. 0ESportsOnline registered @ 2009-10-27 00:05:56, last login @ 2009-10-27 00:05:56
  38. 0NiffideWrorie registered @ 2009-10-27 00:14:03, last login @ 2009-10-27 00:14:03
  39. 0SlellaEnzyday registered @ 2009-10-27 00:14:12, last login @ 2009-10-27 00:14:12
  40. 0evaCisa registered @ 2009-10-27 00:20:10, last login @ 2009-10-29 06:30:47
  41. 0lethanhduc2000 registered @ 2009-10-27 00:21:03, last login @ 2009-10-27 01:20:06
  42. 0gggaisgeeiigds registered @ 2009-10-27 00:45:27, last login @ 2009-10-27 00:45:27
  43. 0mboten registered @ 2009-10-27 00:56:37, last login @ 2009-10-27 00:56:37
  44. 0chris_106 registered @ 2009-10-27 01:17:33, last login @ 2009-10-27 01:17:33
  45. 0tempass registered @ 2009-10-27 01:26:48, last login @ 2010-11-24 21:37:08
  46. 0Redetheorce registered @ 2009-10-27 01:35:42, last login @ 2009-10-27 01:35:42
  47. 0nnnjsbkivjfhhkds registered @ 2009-10-27 01:40:15, last login @ 2009-10-27 01:40:15
  48. 0CiffPhiminy registered @ 2009-10-27 01:49:07, last login @ 2009-10-28 13:45:50
  49. 0Faitagaineric registered @ 2009-10-27 01:55:40, last login @ 2009-10-27 01:55:40
  50. 0rossitheone registered @ 2009-10-27 02:16:22, last login @ 2009-10-27 02:16:22
  51. 0tbe07lpn registered @ 2009-10-27 02:18:56, last login @ 2009-10-27 02:18:56
  52. 0Ninifu registered @ 2009-10-27 02:21:14, last login @ 2009-10-27 02:25:00
  53. 0zaqwersj registered @ 2009-10-27 02:33:02, last login @ 2009-10-27 02:33:02
  54. 0Drurref registered @ 2009-10-27 02:33:57, last login @ 2009-10-28 15:31:23
  55. 0LeonardSC registered @ 2009-10-27 03:01:05, last login @ 2009-10-27 03:01:05
  56. 0ajhinla registered @ 2009-10-27 03:34:17, last login @ 2009-11-01 20:52:43
  57. 0ImgDeploG registered @ 2009-10-27 03:40:15, last login @ 2009-10-27 03:40:15
  58. 0buakia registered @ 2009-10-27 03:40:42, last login @ 2009-10-27 03:40:42
  59. 0oyip registered @ 2009-10-27 03:49:57, last login @ 2009-10-29 05:01:47
  60. 0hypomanic4life registered @ 2009-10-27 03:55:58, last login @ 2009-10-27 03:55:58
  61. 0Trojnacki registered @ 2009-10-27 03:59:15, last login @ 2009-10-27 03:59:15
  62. 0bchain registered @ 2009-10-27 04:08:58, last login @ 2009-10-28 01:50:52
  63. 0Williamoxen registered @ 2009-10-27 04:10:30, last login @ 2009-10-27 04:12:15
  64. 0rohitranjan registered @ 2009-10-27 04:19:19, last login @ 2009-10-27 04:19:19
  65. 0yogibbear registered @ 2009-10-27 04:27:15, last login @ 2009-10-27 04:27:15
  66. 0Benu registered @ 2009-10-27 04:34:49, last login @ 2009-10-27 13:58:36
  67. 0oxineedow registered @ 2009-10-27 04:57:31, last login @ 2009-10-27 04:57:31
  68. 0hbinjm registered @ 2009-10-27 04:59:37, last login @ 2009-10-27 04:59:37
  69. 0Myongnormay registered @ 2009-10-27 05:03:45, last login @ 2009-10-27 05:03:45
  70. 0underxb registered @ 2009-10-27 05:40:02, last login @ 2009-10-27 05:40:02
  71. 0mdez registered @ 2009-10-27 05:40:18, last login @ 2009-10-27 05:40:18
  72. 0qwer90147 registered @ 2009-10-27 05:46:33, last login @ 2009-10-27 05:46:33
  73. 0rizkycech registered @ 2009-10-27 05:51:13, last login @ 2009-10-27 05:51:13
  74. 0mo_pahlevani registered @ 2009-10-27 06:05:07, last login @ 2009-10-27 06:05:07
  75. 0cphing registered @ 2009-10-27 06:06:37, last login @ 2009-10-27 06:06:37
  76. 0ixwebhostingpromocode registered @ 2009-10-27 06:12:54, last login @ 2009-10-27 06:12:54
  77. 0mehfal registered @ 2009-10-27 06:19:42, last login @ 2009-10-27 06:19:42
  78. 0nikalai84 registered @ 2009-10-27 06:27:56, last login @ 2009-10-27 06:27:56
  79. 0z_abdulali registered @ 2009-10-27 06:28:21, last login @ 2009-10-27 06:29:35
  80. 0DrKavya registered @ 2009-10-27 06:34:41, last login @ 2009-10-27 06:43:09
  81. 0soloheart registered @ 2009-10-27 06:35:34, last login @ 2010-04-21 15:23:26
  82. 0rainn registered @ 2009-10-27 06:47:46, last login @ 2009-10-27 06:47:46
  83. 0yuwei0222 registered @ 2009-10-27 07:18:14, last login @ 2009-10-27 07:18:14
  84. 0somia registered @ 2009-10-27 07:40:31, last login @ 2016-10-23 01:38:22
  85. 0viktavyf registered @ 2009-10-27 07:58:17, last login @ 2009-10-27 07:58:17
  86. 0joker_2006 registered @ 2009-10-27 08:04:16, last login @ 2009-10-27 08:04:16
  87. 0ballerino registered @ 2009-10-27 08:09:28, last login @ 2009-10-27 08:09:28
  88. 0Stellberger registered @ 2009-10-27 08:13:03, last login @ 2009-10-27 08:13:03
  89. 0yosry registered @ 2009-10-27 08:21:30, last login @ 2009-11-22 10:31:11
  90. 0massoodbayzidi registered @ 2009-10-27 08:30:46, last login @ 2009-10-27 08:30:46
  91. 0centaurkk registered @ 2009-10-27 08:45:41, last login @ 2009-10-27 08:45:41
  92. 0GimySadek registered @ 2009-10-27 08:51:18, last login @ 2009-10-27 08:51:18
  93. 0Dozerdog registered @ 2009-10-27 09:01:13, last login @ 2009-10-27 09:01:24
  94. 0zhan220 registered @ 2009-10-27 09:04:31, last login @ 2009-10-27 09:04:46
  95. 0qianqian520cat registered @ 2009-10-27 09:06:49, last login @ 2009-10-27 09:06:49
  96. 0haldj registered @ 2009-10-27 09:21:20, last login @ 2009-10-27 09:21:20
  97. 0qs673 registered @ 2009-10-27 09:37:29, last login @ 2009-10-27 09:37:29
  98. 0hellofhell registered @ 2009-10-27 09:50:56, last login @ 2009-10-27 09:50:56
  99. 0gaots registered @ 2009-10-27 09:53:00, last login @ 2009-10-27 09:53:00
  100. 0FaphCaupt registered @ 2009-10-27 10:32:32, last login @ 2009-10-27 10:32:32
  101. 0PROOCASALEPAR registered @ 2009-10-27 10:51:36, last login @ 2009-10-27 10:51:36

More...

[1010] [1009] [1008] [1007] [1006] [1005] [1004] [1003] [1002] [1001] [1000] [999] [998] [997] [996] [995] [994] [993] [992] [991] ...[1]
Back to Top